Perry, MO (63462)

2:22 PM CDT on September 26, 2016 (GMT -0500)
Pigeon Roost Place | | Change Station
Active Advisory: Flood Warning

Elev 712 ft 39.49 °N, 91.71 °W | Updated 9 minutes ago

Clear
Clear
74.1 °F
Feels Like 77 °F
N
4.0
Wind Variable Wind from West
Gusts 8.0 mph

Today
High -- | Low -- °F
--% Chance of Precip.
Yesterday
High -- | Low -- °F
Precip. -- in
Pressure 30.13 in
Visibility 10.0 miles
Clouds Clear
Heat Index 77 °F
Dew Point 41 °F
Humidity 30%
Rainfall 0.00 in
Snow Depth Not available.
6:58 AM 6:56 PM
Waning Crescent, 17% visible
METAR KHAE 261855Z AUTO 29008G15KT 10SM CLR 22/M02 A3013 RMK AO2
Pressure 30.13 in
Visibility 10.0 miles
Clouds Clear
Heat Index 77 °F
Dew Point 41 °F
Humidity 30%
Rainfall 0.00 in
Snow Depth Not available.
6:58 AM 6:56 PM
Waning Crescent, 17% visible
METAR KHAE 261855Z AUTO 29008G15KT 10SM CLR 22/M02 A3013 RMK AO2

10-Day Weather Forecast

Almanac

Astronomy

Sep. 26, 2016 Rise Set
Actual Time
Civil Twilight
Nautical Twilight
Astronomical Twilight
Moon
Length of Visible Light
Length of Day
Tomorrow will be .
, % of the Moon is Illuminated

Today's Extremes

State Highs State Lows

Community

WunderPhotos

Upload Photos

1,941,954 photos uploaded!

WunderBlog® & News

Nearby

Air Quality

  Air Quality AQ Index Pollutant
Not available.

Snow Depth

Station Depth Elevation

Earthquake Activity

City Distance Mag. Time & Date
Minimum magnitude displayed is 2.5.

Coastal Water Temperatures

Place Temperature

Stations

Nearby Weather Stations

Station Location Temp. Windchill Dew Point Humidity Wind Precip. Elev Updated Type
                   

Watches & Warnings

Flood Warning
Issued: 11:37 AM CDT Sep. 26, 2016 – National Weather Service

The Flood Warning continues for
the Mississippi River at Saverton ld22
* from Thursday afternoon until further notice.
* At 10:00 am Monday the stage was 14.2 feet.
* Flood stage is 16.0 feet.
* Minor flooding is forecast.
* The river is forecast to rise above flood stage by Thursday early
afternoon and crest near 19.9 feet by early Tuesday
morning. Additional rises are possible thereafter.
* Impact: at 19.6 feet... the north end of Saverton Road begins to
flood.



                   Fld latest 7 a.M. Forecast
location stg obs stg 09/27 09/28 09/29 09/30 10/01

Mississippi River
Saverton ld22 16.0 14.24 14.3 14.9 15.7 16.8 17.9




Lat... Lon 3967 9135 3974 9121 3970 9114 3952 9097
      3945 9111